VIP Ground Handling & Aviation Services

 

 
Airport

CHIOS (JKH)

Ground Handling Services – JKH/LGHI

VIP Ground Handling

State Ground Handling

Military Ground Handling

Slot & PPR Coordination

Fuel Arrangements

Crew Accommodation Arrangements

Crew Transportation

Customs & Immigration Assistance

Executive Terminal Services

Crew Lounge

Flight Planning, Weather Briefing and NOTAMs

Catering Arrangements

Security Services

Aircraft Maintenance

Airport Customs & Immigration

Concierge Services

VIP Meet & Greet

Helicopter Transfers

Chauffeur Services

Aircraft Charter

Yacht Charter

Hire & Rental

Entertainment & Hospitality

Health & Beauty

Delivery Services

Conference & Meeting rooms

Chios Airport, Chios, 821 00

+30 210 35 33 331 (24/7)

+30 694 6200 300 (24/7)

greece@alphajetservices.com

Chios Airport
Airport Type
•Civil
Operating Hours / Contact us
•Check NOTAMS
Fuel Available
•JET A1
Fire Category
•6
Approaches
•VOR / DME NDB
Available data for LGHI from the past 2 hours
CHIOS AIRPORT
Metar
LGHI 260950Z 03013KT CAVOK 29/20 Q1011

09:50 UTC

Wind: 30° 13kt

Visibility:

Sky:

Temp: 29 deg C / 84.2 deg F

Dewpoint: 20 deg C / 68 deg F

Pressure: 1011 hPa

TAF
TAF LGHI 260800Z 2609/2618 01012KT 9999 FEW025 TEMPO 2609/2618 01012G22KT